sensor_id;sensor_type;location;lat;lon;timestamp;P1;durP1;ratioP1;P2;durP2;ratioP2
72085;SDS011;64750;52.134;5.424;2023-10-09T00:02:08;27.13;;;15.80;;
72085;SDS011;64750;52.134;5.424;2023-10-09T00:04:37;26.77;;;15.40;;
72085;SDS011;64750;52.134;5.424;2023-10-09T00:07:07;29.75;;;16.73;;
72085;SDS011;64750;52.134;5.424;2023-10-09T00:09:35;28.17;;;15.40;;
72085;SDS011;64750;52.134;5.424;2023-10-09T00:12:14;26.50;;;15.55;;
72085;SDS011;64750;52.134;5.424;2023-10-09T00:14:42;25.98;;;15.65;;
72085;SDS011;64750;52.134;5.424;2023-10-09T00:17:15;27.10;;;14.48;;
72085;SDS011;64750;52.134;5.424;2023-10-09T00:19:45;24.92;;;15.85;;
72085;SDS011;64750;52.134;5.424;2023-10-09T00:22:16;28.30;;;14.57;;
72085;SDS011;64750;52.134;5.424;2023-10-09T00:24:56;28.35;;;15.75;;
72085;SDS011;64750;52.134;5.424;2023-10-09T00:27:46;25.42;;;15.05;;
72085;SDS011;64750;52.134;5.424;2023-10-09T00:30:13;26.45;;;15.00;;
72085;SDS011;64750;52.134;5.424;2023-10-09T00:32:44;20.30;;;14.68;;
72085;SDS011;64750;52.134;5.424;2023-10-09T00:35:26;24.83;;;15.33;;
72085;SDS011;64750;52.134;5.424;2023-10-09T00:38:03;25.00;;;15.15;;
72085;SDS011;64750;52.134;5.424;2023-10-09T00:40:47;26.90;;;15.25;;
72085;SDS011;64750;52.134;5.424;2023-10-09T00:43:23;28.25;;;15.00;;
72085;SDS011;64750;52.134;5.424;2023-10-09T00:45:56;23.95;;;15.60;;
72085;SDS011;64750;52.134;5.424;2023-10-09T00:48:49;21.63;;;14.63;;
72085;SDS011;64750;52.134;5.424;2023-10-09T00:51:18;27.13;;;15.32;;
72085;SDS011;64750;52.134;5.424;2023-10-09T00:53:49;23.10;;;14.85;;
72085;SDS011;64750;52.134;5.424;2023-10-09T00:56:19;24.15;;;15.15;;
72085;SDS011;64750;52.134;5.424;2023-10-09T00:59:05;22.77;;;14.52;;
72085;SDS011;64750;52.134;5.424;2023-10-09T01:01:36;26.47;;;14.90;;
72085;SDS011;64750;52.134;5.424;2023-10-09T01:04:06;21.92;;;13.98;;
72085;SDS011;64750;52.134;5.424;2023-10-09T01:06:45;22.38;;;14.30;;
72085;SDS011;64750;52.134;5.424;2023-10-09T01:09:30;21.33;;;13.95;;
72085;SDS011;64750;52.134;5.424;2023-10-09T01:12:03;22.05;;;13.98;;
72085;SDS011;64750;52.134;5.424;2023-10-09T01:14:30;23.50;;;14.50;;
72085;SDS011;64750;52.134;5.424;2023-10-09T01:17:02;21.27;;;14.90;;
72085;SDS011;64750;52.134;5.424;2023-10-09T01:19:35;20.45;;;14.20;;
72085;SDS011;64750;52.134;5.424;2023-10-09T01:22:02;22.80;;;14.75;;
72085;SDS011;64750;52.134;5.424;2023-10-09T01:24:39;23.30;;;14.20;;
72085;SDS011;64750;52.134;5.424;2023-10-09T01:27:06;23.40;;;14.63;;
72085;SDS011;64750;52.134;5.424;2023-10-09T01:29:41;24.02;;;14.63;;
72085;SDS011;64750;52.134;5.424;2023-10-09T01:32:08;22.90;;;14.48;;
72085;SDS011;64750;52.134;5.424;2023-10-09T01:34:42;22.98;;;14.00;;
72085;SDS011;64750;52.134;5.424;2023-10-09T01:37:11;22.20;;;14.45;;
72085;SDS011;64750;52.134;5.424;2023-10-09T01:39:46;21.87;;;13.63;;
72085;SDS011;64750;52.134;5.424;2023-10-09T01:42:14;18.48;;;14.02;;
72085;SDS011;64750;52.134;5.424;2023-10-09T01:44:56;22.63;;;13.63;;
72085;SDS011;64750;52.134;5.424;2023-10-09T01:47:25;21.60;;;14.43;;
72085;SDS011;64750;52.134;5.424;2023-10-09T01:49:57;25.52;;;14.18;;
72085;SDS011;64750;52.134;5.424;2023-10-09T01:52:24;24.63;;;13.83;;
72085;SDS011;64750;52.134;5.424;2023-10-09T01:54:51;29.05;;;15.88;;
72085;SDS011;64750;52.134;5.424;2023-10-09T01:57:18;21.75;;;14.95;;
72085;SDS011;64750;52.134;5.424;2023-10-09T01:59:49;21.63;;;13.93;;
72085;SDS011;64750;52.134;5.424;2023-10-09T02:02:19;24.13;;;14.20;;
72085;SDS011;64750;52.134;5.424;2023-10-09T02:05:12;22.17;;;15.23;;
72085;SDS011;64750;52.134;5.424;2023-10-09T02:07:39;20.23;;;14.00;;
72085;SDS011;64750;52.134;5.424;2023-10-09T02:10:21;19.45;;;13.93;;
72085;SDS011;64750;52.134;5.424;2023-10-09T02:15:36;18.05;;;13.68;;
72085;SDS011;64750;52.134;5.424;2023-10-09T02:18:13;22.57;;;13.50;;
72085;SDS011;64750;52.134;5.424;2023-10-09T02:21:03;20.10;;;13.80;;
72085;SDS011;64750;52.134;5.424;2023-10-09T02:23:32;22.45;;;14.50;;
72085;SDS011;64750;52.134;5.424;2023-10-09T02:26:05;22.35;;;13.90;;
72085;SDS011;64750;52.134;5.424;2023-10-09T02:28:33;20.42;;;13.95;;
72085;SDS011;64750;52.134;5.424;2023-10-09T02:31:01;21.70;;;13.13;;
72085;SDS011;64750;52.134;5.424;2023-10-09T02:33:36;18.80;;;13.52;;
72085;SDS011;64750;52.134;5.424;2023-10-09T02:36:06;18.67;;;14.27;;
72085;SDS011;64750;52.134;5.424;2023-10-09T02:38:33;22.88;;;14.43;;
72085;SDS011;64750;52.134;5.424;2023-10-09T02:41:01;19.80;;;14.27;;
72085;SDS011;64750;52.134;5.424;2023-10-09T02:43:34;17.53;;;13.70;;
72085;SDS011;64750;52.134;5.424;2023-10-09T02:46:14;20.95;;;13.80;;
72085;SDS011;64750;52.134;5.424;2023-10-09T02:48:45;23.02;;;13.93;;
72085;SDS011;64750;52.134;5.424;2023-10-09T02:51:28;19.05;;;13.95;;
72085;SDS011;64750;52.134;5.424;2023-10-09T02:53:55;19.92;;;12.88;;
72085;SDS011;64750;52.134;5.424;2023-10-09T02:56:25;19.20;;;12.73;;
72085;SDS011;64750;52.134;5.424;2023-10-09T02:59:09;19.90;;;12.98;;
72085;SDS011;64750;52.134;5.424;2023-10-09T03:01:37;20.52;;;13.98;;
72085;SDS011;64750;52.134;5.424;2023-10-09T03:04:05;15.73;;;12.93;;
72085;SDS011;64750;52.134;5.424;2023-10-09T03:06:33;19.38;;;13.13;;
72085;SDS011;64750;52.134;5.424;2023-10-09T03:09:06;15.50;;;12.30;;
72085;SDS011;64750;52.134;5.424;2023-10-09T03:11:44;18.48;;;12.95;;
72085;SDS011;64750;52.134;5.424;2023-10-09T03:14:12;15.75;;;12.70;;
72085;SDS011;64750;52.134;5.424;2023-10-09T03:16:39;18.95;;;12.57;;
72085;SDS011;64750;52.134;5.424;2023-10-09T03:19:06;17.52;;;12.00;;
72085;SDS011;64750;52.134;5.424;2023-10-09T03:21:33;19.33;;;12.90;;
72085;SDS011;64750;52.134;5.424;2023-10-09T03:24:00;15.77;;;12.20;;
72085;SDS011;64750;52.134;5.424;2023-10-09T03:26:31;16.98;;;12.10;;
72085;SDS011;64750;52.134;5.424;2023-10-09T03:28:57;20.15;;;12.70;;
72085;SDS011;64750;52.134;5.424;2023-10-09T03:31:27;21.33;;;12.65;;
72085;SDS011;64750;52.134;5.424;2023-10-09T03:33:58;17.93;;;12.20;;
72085;SDS011;64750;52.134;5.424;2023-10-09T03:36:24;18.70;;;12.07;;
72085;SDS011;64750;52.134;5.424;2023-10-09T03:38:53;18.42;;;12.55;;
72085;SDS011;64750;52.134;5.424;2023-10-09T03:41:24;17.33;;;11.63;;
72085;SDS011;64750;52.134;5.424;2023-10-09T03:43:55;17.38;;;12.75;;
72085;SDS011;64750;52.134;5.424;2023-10-09T03:46:21;17.80;;;12.17;;
72085;SDS011;64750;52.134;5.424;2023-10-09T03:48:52;20.67;;;12.23;;
72085;SDS011;64750;52.134;5.424;2023-10-09T03:51:22;13.90;;;11.30;;
72085;SDS011;64750;52.134;5.424;2023-10-09T03:53:50;18.33;;;12.05;;
72085;SDS011;64750;52.134;5.424;2023-10-09T03:56:19;14.70;;;10.82;;
72085;SDS011;64750;52.134;5.424;2023-10-09T03:58:48;13.73;;;10.70;;
72085;SDS011;64750;52.134;5.424;2023-10-09T04:01:16;13.98;;;10.68;;
72085;SDS011;64750;52.134;5.424;2023-10-09T04:03:50;16.92;;;11.27;;
72085;SDS011;64750;52.134;5.424;2023-10-09T04:06:27;13.48;;;10.50;;
72085;SDS011;64750;52.134;5.424;2023-10-09T04:08:57;15.60;;;10.82;;
72085;SDS011;64750;52.134;5.424;2023-10-09T04:11:25;14.70;;;10.03;;
72085;SDS011;64750;52.134;5.424;2023-10-09T04:13:52;12.23;;;9.48;;
72085;SDS011;64750;52.134;5.424;2023-10-09T04:16:26;12.52;;;9.55;;
72085;SDS011;64750;52.134;5.424;2023-10-09T04:19:00;11.93;;;9.48;;
72085;SDS011;64750;52.134;5.424;2023-10-09T04:21:37;14.85;;;9.18;;
72085;SDS011;64750;52.134;5.424;2023-10-09T04:24:04;9.63;;;8.37;;
72085;SDS011;64750;52.134;5.424;2023-10-09T04:26:35;11.23;;;9.10;;
72085;SDS011;64750;52.134;5.424;2023-10-09T04:29:03;12.25;;;8.75;;
72085;SDS011;64750;52.134;5.424;2023-10-09T04:31:30;13.68;;;9.07;;
72085;SDS011;64750;52.134;5.424;2023-10-09T04:34:04;10.73;;;8.52;;
72085;SDS011;64750;52.134;5.424;2023-10-09T04:36:49;10.13;;;8.23;;
72085;SDS011;64750;52.134;5.424;2023-10-09T04:39:17;12.68;;;9.32;;
72085;SDS011;64750;52.134;5.424;2023-10-09T04:41:56;11.40;;;8.63;;
72085;SDS011;64750;52.134;5.424;2023-10-09T04:44:43;10.25;;;8.68;;
72085;SDS011;64750;52.134;5.424;2023-10-09T04:47:28;8.98;;;7.95;;
72085;SDS011;64750;52.134;5.424;2023-10-09T04:50:08;12.13;;;7.97;;
72085;SDS011;64750;52.134;5.424;2023-10-09T04:53:02;10.13;;;7.72;;
72085;SDS011;64750;52.134;5.424;2023-10-09T04:55:44;8.80;;;7.05;;
72085;SDS011;64750;52.134;5.424;2023-10-09T04:58:21;7.95;;;7.10;;
72085;SDS011;64750;52.134;5.424;2023-10-09T05:00:54;7.97;;;7.18;;
72085;SDS011;64750;52.134;5.424;2023-10-09T05:03:24;11.93;;;6.83;;
72085;SDS011;64750;52.134;5.424;2023-10-09T05:05:55;12.02;;;7.45;;
72085;SDS011;64750;52.134;5.424;2023-10-09T05:08:25;10.75;;;7.53;;
72085;SDS011;64750;52.134;5.424;2023-10-09T05:13:29;11.35;;;7.32;;
72085;SDS011;64750;52.134;5.424;2023-10-09T05:18:39;10.98;;;6.97;;
72085;SDS011;64750;52.134;5.424;2023-10-09T05:21:06;10.18;;;7.32;;
72085;SDS011;64750;52.134;5.424;2023-10-09T05:23:38;8.85;;;6.57;;
72085;SDS011;64750;52.134;5.424;2023-10-09T05:26:15;8.80;;;6.75;;
72085;SDS011;64750;52.134;5.424;2023-10-09T05:29:00;8.50;;;6.93;;
72085;SDS011;64750;52.134;5.424;2023-10-09T05:31:36;13.38;;;6.28;;
72085;SDS011;64750;52.134;5.424;2023-10-09T05:34:25;7.05;;;6.10;;
72085;SDS011;64750;52.134;5.424;2023-10-09T05:39:44;8.27;;;5.78;;
72085;SDS011;64750;52.134;5.424;2023-10-09T05:42:24;8.40;;;5.37;;
72085;SDS011;64750;52.134;5.424;2023-10-09T05:45:13;8.23;;;6.10;;
72085;SDS011;64750;52.134;5.424;2023-10-09T05:47:45;9.52;;;5.40;;
72085;SDS011;64750;52.134;5.424;2023-10-09T05:50:28;9.05;;;5.82;;
72085;SDS011;64750;52.134;5.424;2023-10-09T05:52:56;9.00;;;5.75;;
72085;SDS011;64750;52.134;5.424;2023-10-09T05:55:31;8.37;;;6.17;;
72085;SDS011;64750;52.134;5.424;2023-10-09T05:58:16;10.15;;;5.85;;
72085;SDS011;64750;52.134;5.424;2023-10-09T06:01:01;9.07;;;5.20;;
72085;SDS011;64750;52.134;5.424;2023-10-09T06:03:46;8.25;;;5.53;;
72085;SDS011;64750;52.134;5.424;2023-10-09T06:06:20;13.60;;;6.18;;
72085;SDS011;64750;52.134;5.424;2023-10-09T06:09:03;10.70;;;5.67;;
72085;SDS011;64750;52.134;5.424;2023-10-09T06:11:43;9.45;;;5.93;;
72085;SDS011;64750;52.134;5.424;2023-10-09T06:14:21;6.88;;;6.18;;
72085;SDS011;64750;52.134;5.424;2023-10-09T06:16:52;8.20;;;5.35;;
72085;SDS011;64750;52.134;5.424;2023-10-09T06:19:45;5.85;;;5.25;;
72085;SDS011;64750;52.134;5.424;2023-10-09T06:22:15;12.93;;;5.70;;
72085;SDS011;64750;52.134;5.424;2023-10-09T06:25:16;8.23;;;5.53;;
72085;SDS011;64750;52.134;5.424;2023-10-09T06:27:44;5.88;;;5.00;;
72085;SDS011;64750;52.134;5.424;2023-10-09T06:30:23;7.45;;;4.70;;
72085;SDS011;64750;52.134;5.424;2023-10-09T06:32:51;6.10;;;4.57;;
72085;SDS011;64750;52.134;5.424;2023-10-09T06:35:24;8.30;;;5.40;;
72085;SDS011;64750;52.134;5.424;2023-10-09T06:37:58;9.07;;;4.85;;
72085;SDS011;64750;52.134;5.424;2023-10-09T06:43:20;5.32;;;4.82;;
72085;SDS011;64750;52.134;5.424;2023-10-09T06:48:21;8.80;;;5.53;;
72085;SDS011;64750;52.134;5.424;2023-10-09T06:51:04;6.60;;;4.43;;
72085;SDS011;64750;52.134;5.424;2023-10-09T06:53:42;7.50;;;5.05;;
72085;SDS011;64750;52.134;5.424;2023-10-09T06:56:27;8.27;;;5.90;;
72085;SDS011;64750;52.134;5.424;2023-10-09T06:58:57;10.23;;;5.25;;
72085;SDS011;64750;52.134;5.424;2023-10-09T07:01:42;8.40;;;5.30;;
72085;SDS011;64750;52.134;5.424;2023-10-09T07:04:09;8.48;;;5.32;;
72085;SDS011;64750;52.134;5.424;2023-10-09T07:06:45;7.72;;;5.43;;
72085;SDS011;64750;52.134;5.424;2023-10-09T07:09:12;7.28;;;4.57;;
72085;SDS011;64750;52.134;5.424;2023-10-09T07:11:43;11.40;;;5.65;;
72085;SDS011;64750;52.134;5.424;2023-10-09T07:14:16;6.60;;;5.60;;
72085;SDS011;64750;52.134;5.424;2023-10-09T07:17:00;5.93;;;5.13;;
72085;SDS011;64750;52.134;5.424;2023-10-09T07:19:27;6.75;;;5.82;;
72085;SDS011;64750;52.134;5.424;2023-10-09T07:22:01;10.88;;;6.22;;
72085;SDS011;64750;52.134;5.424;2023-10-09T07:24:30;9.50;;;5.80;;
72085;SDS011;64750;52.134;5.424;2023-10-09T07:27:10;7.70;;;6.20;;
72085;SDS011;64750;52.134;5.424;2023-10-09T07:29:39;8.75;;;5.80;;
72085;SDS011;64750;52.134;5.424;2023-10-09T07:32:15;9.82;;;5.72;;
72085;SDS011;64750;52.134;5.424;2023-10-09T07:34:48;6.43;;;5.43;;
72085;SDS011;64750;52.134;5.424;2023-10-09T07:37:28;8.60;;;5.82;;
72085;SDS011;64750;52.134;5.424;2023-10-09T07:40:04;10.53;;;6.80;;
72085;SDS011;64750;52.134;5.424;2023-10-09T07:42:34;6.43;;;5.78;;
72085;SDS011;64750;52.134;5.424;2023-10-09T07:45:07;10.15;;;6.57;;
72085;SDS011;64750;52.134;5.424;2023-10-09T07:48:00;8.07;;;6.15;;
72085;SDS011;64750;52.134;5.424;2023-10-09T07:50:27;9.27;;;5.72;;
72085;SDS011;64750;52.134;5.424;2023-10-09T07:53:07;11.27;;;5.37;;
72085;SDS011;64750;52.134;5.424;2023-10-09T07:55:52;14.05;;;6.25;;
72085;SDS011;64750;52.134;5.424;2023-10-09T07:58:32;11.65;;;5.85;;
72085;SDS011;64750;52.134;5.424;2023-10-09T08:01:15;9.20;;;5.55;;
72085;SDS011;64750;52.134;5.424;2023-10-09T08:03:42;9.95;;;5.65;;
72085;SDS011;64750;52.134;5.424;2023-10-09T08:06:15;11.73;;;5.97;;
72085;SDS011;64750;52.134;5.424;2023-10-09T08:09:01;9.02;;;5.75;;
72085;SDS011;64750;52.134;5.424;2023-10-09T08:11:48;7.35;;;5.95;;
72085;SDS011;64750;52.134;5.424;2023-10-09T08:14:43;7.97;;;6.30;;
72085;SDS011;64750;52.134;5.424;2023-10-09T08:17:11;13.32;;;6.00;;
72085;SDS011;64750;52.134;5.424;2023-10-09T08:19:42;9.70;;;5.73;;
72085;SDS011;64750;52.134;5.424;2023-10-09T08:22:23;9.23;;;5.82;;
72085;SDS011;64750;52.134;5.424;2023-10-09T08:24:50;9.10;;;5.78;;
72085;SDS011;64750;52.134;5.424;2023-10-09T08:27:24;10.95;;;5.97;;
72085;SDS011;64750;52.134;5.424;2023-10-09T08:30:14;7.75;;;5.72;;
72085;SDS011;64750;52.134;5.424;2023-10-09T08:32:44;9.33;;;5.80;;
72085;SDS011;64750;52.134;5.424;2023-10-09T08:35:33;9.70;;;5.47;;
72085;SDS011;64750;52.134;5.424;2023-10-09T08:38:02;11.15;;;5.82;;
72085;SDS011;64750;52.134;5.424;2023-10-09T08:40:37;10.18;;;5.97;;
72085;SDS011;64750;52.134;5.424;2023-10-09T08:45:39;8.80;;;6.50;;
72085;SDS011;64750;52.134;5.424;2023-10-09T08:48:07;7.07;;;5.43;;
72085;SDS011;64750;52.134;5.424;2023-10-09T08:50:38;9.93;;;5.80;;
72085;SDS011;64750;52.134;5.424;2023-10-09T08:53:05;18.13;;;6.53;;
72085;SDS011;64750;52.134;5.424;2023-10-09T08:55:32;13.00;;;5.57;;
72085;SDS011;64750;52.134;5.424;2023-10-09T08:57:59;15.73;;;5.43;;
72085;SDS011;64750;52.134;5.424;2023-10-09T09:00:26;8.48;;;5.43;;
72085;SDS011;64750;52.134;5.424;2023-10-09T09:02:59;9.23;;;5.32;;
72085;SDS011;64750;52.134;5.424;2023-10-09T09:05:26;9.45;;;5.03;;
72085;SDS011;64750;52.134;5.424;2023-10-09T09:07:56;8.05;;;4.80;;
72085;SDS011;64750;52.134;5.424;2023-10-09T09:10:28;11.80;;;5.23;;
72085;SDS011;64750;52.134;5.424;2023-10-09T09:13:02;8.50;;;5.32;;
72085;SDS011;64750;52.134;5.424;2023-10-09T09:15:30;8.15;;;4.88;;
72085;SDS011;64750;52.134;5.424;2023-10-09T09:18:03;8.38;;;5.20;;
72085;SDS011;64750;52.134;5.424;2023-10-09T09:20:37;12.10;;;5.00;;
72085;SDS011;64750;52.134;5.424;2023-10-09T09:23:09;10.80;;;5.30;;
72085;SDS011;64750;52.134;5.424;2023-10-09T09:25:45;6.95;;;4.97;;
72085;SDS011;64750;52.134;5.424;2023-10-09T09:28:14;9.48;;;4.97;;
72085;SDS011;64750;52.134;5.424;2023-10-09T09:30:47;8.43;;;4.97;;
72085;SDS011;64750;52.134;5.424;2023-10-09T09:33:18;9.45;;;5.22;;
72085;SDS011;64750;52.134;5.424;2023-10-09T09:36:00;6.33;;;4.97;;
72085;SDS011;64750;52.134;5.424;2023-10-09T09:38:33;11.90;;;6.03;;
72085;SDS011;64750;52.134;5.424;2023-10-09T09:41:18;6.43;;;4.80;;
72085;SDS011;64750;52.134;5.424;2023-10-09T09:43:52;10.70;;;4.72;;
72085;SDS011;64750;52.134;5.424;2023-10-09T09:46:22;10.02;;;4.65;;
72085;SDS011;64750;52.134;5.424;2023-10-09T09:49:02;8.90;;;4.93;;
72085;SDS011;64750;52.134;5.424;2023-10-09T09:51:30;12.07;;;6.97;;
72085;SDS011;64750;52.134;5.424;2023-10-09T09:53:57;7.88;;;4.90;;
72085;SDS011;64750;52.134;5.424;2023-10-09T09:56:24;8.10;;;4.80;;
72085;SDS011;64750;52.134;5.424;2023-10-09T09:58:52;10.55;;;5.40;;
72085;SDS011;64750;52.134;5.424;2023-10-09T10:01:20;7.00;;;4.60;;
72085;SDS011;64750;52.134;5.424;2023-10-09T10:03:57;9.55;;;5.60;;
72085;SDS011;64750;52.134;5.424;2023-10-09T10:06:26;6.65;;;4.80;;
72085;SDS011;64750;52.134;5.424;2023-10-09T10:08:58;10.65;;;5.03;;
72085;SDS011;64750;52.134;5.424;2023-10-09T10:14:43;5.63;;;4.27;;
72085;SDS011;64750;52.134;5.424;2023-10-09T10:17:19;8.45;;;4.65;;
72085;SDS011;64750;52.134;5.424;2023-10-09T10:22:30;10.50;;;4.80;;
72085;SDS011;64750;52.134;5.424;2023-10-09T10:24:59;8.15;;;4.90;;
72085;SDS011;64750;52.134;5.424;2023-10-09T10:27:29;15.03;;;4.17;;
72085;SDS011;64750;52.134;5.424;2023-10-09T10:35:19;9.02;;;4.38;;
72085;SDS011;64750;52.134;5.424;2023-10-09T10:37:58;6.70;;;4.45;;
72085;SDS011;64750;52.134;5.424;2023-10-09T10:40:31;10.33;;;4.53;;
72085;SDS011;64750;52.134;5.424;2023-10-09T10:43:16;6.47;;;4.13;;
72085;SDS011;64750;52.134;5.424;2023-10-09T10:46:05;11.70;;;4.43;;
72085;SDS011;64750;52.134;5.424;2023-10-09T10:49:00;8.98;;;4.47;;
72085;SDS011;64750;52.134;5.424;2023-10-09T10:51:41;6.10;;;4.38;;
72085;SDS011;64750;52.134;5.424;2023-10-09T10:54:20;12.17;;;4.37;;
72085;SDS011;64750;52.134;5.424;2023-10-09T10:57:18;9.40;;;4.47;;
72085;SDS011;64750;52.134;5.424;2023-10-09T10:59:46;9.00;;;4.38;;
72085;SDS011;64750;52.134;5.424;2023-10-09T11:02:16;5.35;;;4.10;;
72085;SDS011;64750;52.134;5.424;2023-10-09T11:04:54;9.50;;;4.18;;
72085;SDS011;64750;52.134;5.424;2023-10-09T11:07:22;9.17;;;4.03;;
72085;SDS011;64750;52.134;5.424;2023-10-09T11:09:54;7.85;;;4.18;;
72085;SDS011;64750;52.134;5.424;2023-10-09T11:15:09;11.10;;;4.30;;
72085;SDS011;64750;52.134;5.424;2023-10-09T11:18:00;8.90;;;4.35;;
72085;SDS011;64750;52.134;5.424;2023-10-09T11:20:32;8.13;;;3.80;;
72085;SDS011;64750;52.134;5.424;2023-10-09T11:23:01;10.70;;;4.20;;
72085;SDS011;64750;52.134;5.424;2023-10-09T11:25:37;6.97;;;4.10;;
72085;SDS011;64750;52.134;5.424;2023-10-09T11:28:20;7.80;;;4.00;;
72085;SDS011;64750;52.134;5.424;2023-10-09T11:31:09;8.27;;;3.72;;
72085;SDS011;64750;52.134;5.424;2023-10-09T11:33:45;6.07;;;4.17;;
72085;SDS011;64750;52.134;5.424;2023-10-09T11:36:18;6.28;;;3.80;;
72085;SDS011;64750;52.134;5.424;2023-10-09T11:38:58;5.93;;;3.88;;
72085;SDS011;64750;52.134;5.424;2023-10-09T11:41:44;6.63;;;4.28;;
72085;SDS011;64750;52.134;5.424;2023-10-09T11:44:15;9.63;;;4.43;;
72085;SDS011;64750;52.134;5.424;2023-10-09T11:46:58;7.00;;;3.87;;
72085;SDS011;64750;52.134;5.424;2023-10-09T11:49:51;8.57;;;3.90;;
72085;SDS011;64750;52.134;5.424;2023-10-09T11:52:28;7.53;;;3.65;;
72085;SDS011;64750;52.134;5.424;2023-10-09T11:54:58;6.03;;;3.83;;
72085;SDS011;64750;52.134;5.424;2023-10-09T11:57:25;6.97;;;4.32;;
72085;SDS011;64750;52.134;5.424;2023-10-09T12:00:00;14.67;;;4.73;;
72085;SDS011;64750;52.134;5.424;2023-10-09T12:02:27;5.72;;;4.00;;
72085;SDS011;64750;52.134;5.424;2023-10-09T12:04:54;6.72;;;4.57;;
72085;SDS011;64750;52.134;5.424;2023-10-09T12:07:24;4.72;;;3.95;;
72085;SDS011;64750;52.134;5.424;2023-10-09T12:09:51;11.43;;;3.90;;
72085;SDS011;64750;52.134;5.424;2023-10-09T12:12:22;5.53;;;3.53;;
72085;SDS011;64750;52.134;5.424;2023-10-09T12:14:52;10.38;;;4.50;;
72085;SDS011;64750;52.134;5.424;2023-10-09T12:17:19;6.85;;;3.97;;
72085;SDS011;64750;52.134;5.424;2023-10-09T12:19:50;8.18;;;3.45;;
72085;SDS011;64750;52.134;5.424;2023-10-09T12:22:17;7.53;;;3.85;;
72085;SDS011;64750;52.134;5.424;2023-10-09T12:24:46;6.13;;;3.40;;
72085;SDS011;64750;52.134;5.424;2023-10-09T12:27:13;5.15;;;3.60;;
72085;SDS011;64750;52.134;5.424;2023-10-09T12:29:40;5.80;;;3.72;;
72085;SDS011;64750;52.134;5.424;2023-10-09T12:32:14;9.02;;;3.75;;
72085;SDS011;64750;52.134;5.424;2023-10-09T12:34:45;4.90;;;3.38;;
72085;SDS011;64750;52.134;5.424;2023-10-09T12:37:16;5.80;;;3.50;;
72085;SDS011;64750;52.134;5.424;2023-10-09T12:39:47;6.68;;;3.55;;
72085;SDS011;64750;52.134;5.424;2023-10-09T12:42:14;6.85;;;3.20;;
72085;SDS011;64750;52.134;5.424;2023-10-09T12:44:43;6.65;;;3.33;;
72085;SDS011;64750;52.134;5.424;2023-10-09T12:47:10;5.70;;;3.55;;
72085;SDS011;64750;52.134;5.424;2023-10-09T12:49:37;7.40;;;3.97;;
72085;SDS011;64750;52.134;5.424;2023-10-09T12:52:10;11.55;;;3.50;;
72085;SDS011;64750;52.134;5.424;2023-10-09T12:54:43;7.88;;;3.50;;
72085;SDS011;64750;52.134;5.424;2023-10-09T12:57:12;6.53;;;3.53;;
72085;SDS011;64750;52.134;5.424;2023-10-09T12:59:42;7.22;;;3.72;;
72085;SDS011;64750;52.134;5.424;2023-10-09T13:02:12;10.50;;;4.33;;
72085;SDS011;64750;52.134;5.424;2023-10-09T13:04:40;10.27;;;4.35;;
72085;SDS011;64750;52.134;5.424;2023-10-09T13:07:09;7.68;;;3.63;;
72085;SDS011;64750;52.134;5.424;2023-10-09T13:09:35;5.03;;;3.58;;
72085;SDS011;64750;52.134;5.424;2023-10-09T13:12:09;7.65;;;3.75;;
72085;SDS011;64750;52.134;5.424;2023-10-09T13:14:44;8.80;;;4.23;;
72085;SDS011;64750;52.134;5.424;2023-10-09T13:17:11;9.15;;;3.50;;
72085;SDS011;64750;52.134;5.424;2023-10-09T13:19:38;10.27;;;4.40;;
72085;SDS011;64750;52.134;5.424;2023-10-09T13:22:04;19.70;;;4.97;;
72085;SDS011;64750;52.134;5.424;2023-10-09T13:24:39;9.10;;;4.28;;
72085;SDS011;64750;52.134;5.424;2023-10-09T13:27:06;8.57;;;3.93;;
72085;SDS011;64750;52.134;5.424;2023-10-09T13:29:36;7.50;;;3.95;;
72085;SDS011;64750;52.134;5.424;2023-10-09T13:32:06;9.13;;;3.70;;
72085;SDS011;64750;52.134;5.424;2023-10-09T13:34:40;12.85;;;4.35;;
72085;SDS011;64750;52.134;5.424;2023-10-09T13:37:11;7.65;;;3.50;;
72085;SDS011;64750;52.134;5.424;2023-10-09T13:39:40;10.47;;;4.10;;
72085;SDS011;64750;52.134;5.424;2023-10-09T13:42:18;10.35;;;4.20;;
72085;SDS011;64750;52.134;5.424;2023-10-09T13:44:44;4.80;;;3.92;;
72085;SDS011;64750;52.134;5.424;2023-10-09T13:47:14;9.57;;;3.67;;
72085;SDS011;64750;52.134;5.424;2023-10-09T13:49:46;5.35;;;3.60;;
72085;SDS011;64750;52.134;5.424;2023-10-09T13:52:16;7.10;;;3.70;;
72085;SDS011;64750;52.134;5.424;2023-10-09T13:54:48;10.15;;;4.07;;
72085;SDS011;64750;52.134;5.424;2023-10-09T13:57:16;9.02;;;4.60;;
72085;SDS011;64750;52.134;5.424;2023-10-09T13:59:42;9.38;;;4.20;;
72085;SDS011;64750;52.134;5.424;2023-10-09T14:02:15;7.57;;;3.95;;
72085;SDS011;64750;52.134;5.424;2023-10-09T14:04:47;6.90;;;3.73;;
72085;SDS011;64750;52.134;5.424;2023-10-09T14:07:14;8.07;;;4.55;;
72085;SDS011;64750;52.134;5.424;2023-10-09T14:09:43;7.80;;;4.50;;
72085;SDS011;64750;52.134;5.424;2023-10-09T14:12:10;8.02;;;3.58;;
72085;SDS011;64750;52.134;5.424;2023-10-09T14:14:41;11.15;;;3.63;;
72085;SDS011;64750;52.134;5.424;2023-10-09T14:17:14;6.47;;;3.37;;
72085;SDS011;64750;52.134;5.424;2023-10-09T14:19:41;7.70;;;4.10;;
72085;SDS011;64750;52.134;5.424;2023-10-09T14:22:14;8.90;;;3.90;;
72085;SDS011;64750;52.134;5.424;2023-10-09T14:24:42;5.20;;;3.55;;
72085;SDS011;64750;52.134;5.424;2023-10-09T14:27:12;8.48;;;3.55;;
72085;SDS011;64750;52.134;5.424;2023-10-09T14:29:44;5.03;;;4.40;;
72085;SDS011;64750;52.134;5.424;2023-10-09T14:32:11;7.95;;;3.60;;
72085;SDS011;64750;52.134;5.424;2023-10-09T14:34:42;10.27;;;4.38;;
72085;SDS011;64750;52.134;5.424;2023-10-09T14:37:12;10.52;;;4.28;;
72085;SDS011;64750;52.134;5.424;2023-10-09T14:39:41;7.65;;;4.25;;
72085;SDS011;64750;52.134;5.424;2023-10-09T14:42:08;12.73;;;3.57;;
72085;SDS011;64750;52.134;5.424;2023-10-09T14:44:39;7.95;;;4.20;;
72085;SDS011;64750;52.134;5.424;2023-10-09T14:47:07;8.98;;;4.45;;
72085;SDS011;64750;52.134;5.424;2023-10-09T14:49:34;7.10;;;4.13;;
72085;SDS011;64750;52.134;5.424;2023-10-09T14:52:10;8.73;;;5.22;;
72085;SDS011;64750;52.134;5.424;2023-10-09T14:54:36;11.97;;;4.60;;
72085;SDS011;64750;52.134;5.424;2023-10-09T14:57:04;10.27;;;4.15;;
72085;SDS011;64750;52.134;5.424;2023-10-09T14:59:32;10.45;;;4.82;;
72085;SDS011;64750;52.134;5.424;2023-10-09T15:01:59;7.53;;;3.88;;
72085;SDS011;64750;52.134;5.424;2023-10-09T15:04:26;8.57;;;4.32;;
72085;SDS011;64750;52.134;5.424;2023-10-09T15:06:53;9.97;;;5.50;;
72085;SDS011;64750;52.134;5.424;2023-10-09T15:09:19;9.80;;;4.45;;
72085;SDS011;64750;52.134;5.424;2023-10-09T15:11:49;5.53;;;4.53;;
72085;SDS011;64750;52.134;5.424;2023-10-09T15:14:17;9.60;;;4.93;;
72085;SDS011;64750;52.134;5.424;2023-10-09T15:16:47;9.30;;;4.63;;
72085;SDS011;64750;52.134;5.424;2023-10-09T15:19:14;6.30;;;4.10;;
72085;SDS011;64750;52.134;5.424;2023-10-09T15:21:42;12.13;;;5.30;;
72085;SDS011;64750;52.134;5.424;2023-10-09T15:24:12;9.02;;;4.25;;
72085;SDS011;64750;52.134;5.424;2023-10-09T15:26:45;9.57;;;4.68;;
72085;SDS011;64750;52.134;5.424;2023-10-09T15:29:19;9.05;;;5.00;;
72085;SDS011;64750;52.134;5.424;2023-10-09T15:31:50;7.20;;;4.70;;
72085;SDS011;64750;52.134;5.424;2023-10-09T15:34:16;9.20;;;4.93;;
72085;SDS011;64750;52.134;5.424;2023-10-09T15:36:45;10.75;;;4.38;;
72085;SDS011;64750;52.134;5.424;2023-10-09T15:39:13;10.18;;;4.15;;
72085;SDS011;64750;52.134;5.424;2023-10-09T15:41:45;9.50;;;4.22;;
72085;SDS011;64750;52.134;5.424;2023-10-09T15:44:12;21.40;;;4.70;;
72085;SDS011;64750;52.134;5.424;2023-10-09T15:46:40;7.15;;;4.28;;